Time;durP1;ratioP1;P1;durP2;ratioP2;P2;SDS_P1;SDS_P2;PMS_P1;PMS_P2;Temp;Humidity;BMP_temperature;BMP_pressure;BME280_temperature;BME280_humidity;BME280_pressure;Samples;Min_cycle;Max_cycle;Signal;HPM_P1;HPM_P2
2022/10/21 00:00:36;;;;;;;;;;;;;;;2.32;100.00;101156.53;3057324;19;19915;-51
2022/10/21 00:01:38;;;;;;;;;;;;;;;2.33;100.00;101153.00;3058075;19;19918;-52
2022/10/21 00:03:02;;;;;;;;;;;;;;;2.35;100.00;101163.50;3057855;19;20342;-54
2022/10/21 00:04:04;;;;;;;;;;;;;;;2.36;100.00;101152.09;3057877;19;19919;-49
2022/10/21 00:05:08;;;;;;;;;;;;;;;2.37;100.00;101149.44;3058202;19;19922;-52
2022/10/21 00:06:10;;;;;;;;;;;;;;;2.36;100.00;101147.69;3058131;19;19982;-52
2022/10/21 00:07:14;;;;;;;;;;;;;;;2.38;100.00;101150.31;3056614;19;19907;-52
2022/10/21 00:08:17;;;;;;;;;;;;;;;2.37;100.00;101144.16;3057656;19;19930;-51
2022/10/21 00:09:21;;;;;;;;;;;;;;;2.37;100.00;101149.44;3057548;19;19919;-52
2022/10/21 00:10:23;;;;;;;;;;;;;;;2.34;100.00;101149.47;3058033;19;19946;-51
2022/10/21 00:11:27;;;;;;;;;;;;;;;2.33;100.00;101150.38;3057673;19;19922;-53
2022/10/21 00:12:30;;;;;;;;;;;;;;;2.32;100.00;101151.25;3058165;19;20621;-55
2022/10/21 00:13:35;;;;;;;;;;;;;;;2.32;100.00;101147.75;3057937;19;19974;-50
2022/10/21 00:14:36;;;;;;;;;;;;;;;2.32;100.00;101145.13;3057145;19;19923;-49
2022/10/21 00:15:41;;;;;;;;;;;;;;;2.30;100.00;101147.78;3056970;19;19926;-51
2022/10/21 00:16:43;;;;;;;;;;;;;;;2.28;100.00;101146.97;3057817;19;19931;-51
2022/10/21 00:17:47;;;;;;;;;;;;;;;2.29;100.00;101147.84;3057864;19;19926;-52
2022/10/21 00:18:49;;;;;;;;;;;;;;;2.28;100.00;101146.97;3058322;19;20008;-52
2022/10/21 00:19:53;;;;;;;;;;;;;;;2.27;100.00;101150.50;3057532;19;19919;-52
2022/10/21 00:20:55;;;;;;;;;;;;;;;2.18;100.00;101133.06;3058125;19;19950;-51
2022/10/21 00:21:59;;;;;;;;;;;;;;;2.24;100.00;101145.25;3057136;19;19926;-50
2022/10/21 00:23:01;;;;;;;;;;;;;;;2.22;100.00;101149.69;3057573;19;19948;-50
2022/10/21 00:24:06;;;;;;;;;;;;;;;2.21;100.00;101150.56;3057793;19;19927;-50
2022/10/21 00:25:08;;;;;;;;;;;;;;;2.19;100.00;101144.47;3057030;19;20555;-52
2022/10/21 00:26:13;;;;;;;;;;;;;;;2.18;100.00;101142.72;3057422;19;20236;-51
2022/10/21 00:27:14;;;;;;;;;;;;;;;2.16;100.00;101140.16;3057080;19;19938;-52
2022/10/21 00:28:20;;;;;;;;;;;;;;;2.17;100.00;101147.13;3056891;19;20022;-51
2022/10/21 00:29:22;;;;;;;;;;;;;;;2.15;100.00;101142.78;3057155;19;19921;-51
2022/10/21 00:30:26;;;;;;;;;;;;;;;2.13;100.00;101144.59;3057335;19;19923;-51
2022/10/21 00:31:29;;;;;;;;;;;;;;;2.11;100.00;101146.38;3057972;19;19923;-50
2022/10/21 00:32:33;;;;;;;;;;;;;;;2.09;100.00;101148.16;3057326;19;20015;-52
2022/10/21 00:33:35;;;;;;;;;;;;;;;2.06;100.00;101142.91;3056111;19;19922;-51
2022/10/21 00:34:42;;;;;;;;;;;;;;;2.04;100.00;101144.75;3055984;19;19915;-50
2022/10/21 00:35:51;;;;;;;;;;;;;;;2.01;100.00;101135.13;3056774;19;19943;-49
2022/10/21 00:36:56;;;;;;;;;;;;;;;2.02;100.00;101136.00;3055452;19;19950;-51
2022/10/21 00:37:57;;;;;;;;;;;;;;;2.03;100.00;101135.09;3056847;19;19951;-52
2022/10/21 00:39:02;;;;;;;;;;;;;;;2.02;100.00;101133.34;3057291;19;19922;-51
2022/10/21 00:40:04;;;;;;;;;;;;;;;2.03;100.00;101138.59;3057359;19;19925;-51
2022/10/21 00:41:08;;;;;;;;;;;;;;;2.05;100.00;101141.22;3057240;19;19923;-49
2022/10/21 00:42:13;;;;;;;;;;;;;;;2.06;100.00;101135.03;3057768;19;20629;-50
2022/10/21 00:43:18;;;;;;;;;;;;;;;2.05;100.00;101138.59;3056955;19;20122;-50
2022/10/21 00:44:20;;;;;;;;;;;;;;;2.05;100.00;101138.59;3057813;19;19922;-52
2022/10/21 00:45:25;;;;;;;;;;;;;;;2.04;100.00;101134.22;3056316;19;19919;-52
2022/10/21 00:46:31;;;;;;;;;;;;;;;2.02;100.00;101128.97;3057672;19;20329;-55
2022/10/21 00:47:56;;;;;;;;;;;;;;;2.03;100.00;101132.47;3056682;19;19937;-52
2022/10/21 00:48:58;;;;;;;;;;;;;;;2.03;100.00;101135.09;3057085;19;19926;-50
2022/10/21 00:50:03;;;;;;;;;;;;;;;2.03;100.00;101129.84;3055003;19;20373;-53
2022/10/21 00:51:06;;;;;;;;;;;;;;;2.03;100.00;101135.09;3057792;19;19919;-50
2022/10/21 00:52:14;;;;;;;;;;;;;;;2.03;100.00;101125.44;3056853;19;19923;-51
2022/10/21 00:53:15;;;;;;;;;;;;;;;2.05;100.00;101131.53;3057276;19;19922;-51
2022/10/21 00:54:20;;;;;;;;;;;;;;;2.05;100.00;101125.41;3056354;19;19943;-51
2022/10/21 00:55:22;;;;;;;;;;;;;;;2.06;100.00;101116.59;3055920;19;19927;-50
2022/10/21 00:56:27;;;;;;;;;;;;;;;2.05;100.00;101120.16;3056678;19;19936;-53
2022/10/21 00:57:30;;;;;;;;;;;;;;;2.05;100.00;101117.53;3057443;19;19923;-51
2022/10/21 00:58:34;;;;;;;;;;;;;;;2.06;100.00;101116.59;3056544;19;19922;-54
2022/10/21 00:59:38;;;;;;;;;;;;;;;2.05;100.00;101125.41;3056516;19;19915;-50
2022/10/21 01:00:42;;;;;;;;;;;;;;;2.05;100.00;101120.16;3057040;19;19919;-51
2022/10/21 01:01:44;;;;;;;;;;;;;;;2.03;100.00;101122.81;3057304;19;19926;-52
2022/10/21 01:02:48;;;;;;;;;;;;;;;2.04;100.00;101110.50;3057171;19;19927;-49
2022/10/21 01:03:50;;;;;;;;;;;;;;;2.02;100.00;101114.94;3057143;19;20203;-51
2022/10/21 01:04:55;;;;;;;;;;;;;;;2.02;100.00;101112.31;3056956;19;20223;-51
2022/10/21 01:05:58;;;;;;;;;;;;;;;2.02;100.00;101114.94;3055471;19;19915;-51
2022/10/21 01:07:02;;;;;;;;;;;;;;;2.01;100.00;101114.06;3056498;19;19923;-49
2022/10/21 01:08:04;;;;;;;;;;;;;;;2.01;100.00;101115.81;3056030;19;19918;-53
2022/10/21 01:09:08;;;;;;;;;;;;;;;1.99;100.00;101110.59;3056187;19;19919;-50
2022/10/21 01:10:10;;;;;;;;;;;;;;;2.01;100.00;101103.53;3056160;19;19939;-51
2022/10/21 01:11:16;;;;;;;;;;;;;;;2.01;100.00;101114.06;3057193;19;19915;-50
2022/10/21 01:12:25;;;;;;;;;;;;;;;2.03;100.00;101116.66;3057283;19;19986;-51
2022/10/21 01:13:29;;;;;;;;;;;;;;;2.01;100.00;101110.56;3056460;19;20286;-50
2022/10/21 01:14:34;;;;;;;;;;;;;;;2.01;100.00;101111.44;3056302;19;19934;-51
2022/10/21 01:15:57;;;;;;;;;;;;;;;2.01;100.00;101113.19;3055658;19;20330;-51
2022/10/21 01:17:05;;;;;;;;;;;;;;;2.01;100.00;101113.19;3056225;19;20564;-51
2022/10/21 01:18:34;;;;;;;;;;;;;;;2.00;100.00;101114.94;3056546;19;19984;-49
2022/10/21 01:19:54;;;;;;;;;;;;;;;1.99;100.00;101115.84;3056358;19;19926;-51
2022/10/21 01:21:05;;;;;;;;;;;;;;;1.98;100.00;101113.22;3056340;19;20034;-52
2022/10/21 01:22:07;;;;;;;;;;;;;;;1.95;100.00;101114.16;3057010;19;19998;-52
2022/10/21 01:23:17;;;;;;;;;;;;;;;1.95;100.00;101126.44;3056946;19;19915;-53
2022/10/21 01:24:40;;;;;;;;;;;;;;;1.93;100.00;101109.81;3056860;19;19943;-51
2022/10/21 01:25:57;;;;;;;;;;;;;;;1.92;100.00;101113.34;3056371;19;19930;-51
2022/10/21 01:27:11;;;;;;;;;;;;;;;1.92;100.00;101118.63;3056824;19;19979;-50
2022/10/21 01:28:17;;;;;;;;;;;;;;;1.93;100.00;101112.47;3056175;19;19923;-51
2022/10/21 01:29:39;;;;;;;;;;;;;;;1.92;100.00;101106.31;3056016;19;19933;-50
2022/10/21 01:30:48;;;;;;;;;;;;;;;1.91;100.00;101112.47;3056174;19;19927;-50
2022/10/21 01:32:02;;;;;;;;;;;;;;;1.89;100.00;101097.59;3057174;19;19930;-50
2022/10/21 01:33:22;;;;;;;;;;;;;;;1.87;100.00;101084.47;3055923;19;19950;-49
2022/10/21 01:34:30;;;;;;;;;;;;;;;1.88;100.00;101090.59;3056037;19;20281;-52
2022/10/21 01:35:43;;;;;;;;;;;;;;;1.89;100.00;101093.22;3056666;19;19922;-51
2022/10/21 01:36:48;;;;;;;;;;;;;;;1.91;100.00;101101.09;3056297;19;19930;-51
2022/10/21 01:37:54;;;;;;;;;;;;;;;1.92;100.00;101089.66;3056163;19;20338;-50
2022/10/21 01:39:02;;;;;;;;;;;;;;;1.92;100.00;101087.91;3055850;19;19931;-51
2022/10/21 01:40:10;;;;;;;;;;;;;;;1.91;100.00;101085.28;3056160;19;20390;-51
2022/10/21 01:41:14;;;;;;;;;;;;;;;1.90;100.00;101084.41;3055925;19;20611;-50
2022/10/21 01:42:19;;;;;;;;;;;;;;;1.90;100.00;101084.41;3056110;19;19943;-51
2022/10/21 01:43:28;;;;;;;;;;;;;;;1.90;100.00;101078.28;3055853;19;20323;-51
2022/10/21 01:44:38;;;;;;;;;;;;;;;1.89;100.00;101079.19;3056239;19;19946;-51
2022/10/21 01:45:46;;;;;;;;;;;;;;;1.88;100.00;101074.81;3055168;19;19968;-51
2022/10/21 01:46:57;;;;;;;;;;;;;;;1.88;100.00;101077.44;3056170;19;20379;-51
2022/10/21 01:48:04;;;;;;;;;;;;;;;1.88;100.00;101070.41;3056039;19;19929;-51
2022/10/21 01:49:11;;;;;;;;;;;;;;;1.87;100.00;101075.69;3055451;19;20021;-51
2022/10/21 01:50:14;;;;;;;;;;;;;;;1.89;100.00;101071.28;3055811;19;20370;-49
2022/10/21 01:51:18;;;;;;;;;;;;;;;1.88;100.00;101069.53;3055488;19;19923;-51
2022/10/21 01:52:20;;;;;;;;;;;;;;;1.87;100.00;101071.31;3055625;19;20247;-52
2022/10/21 01:53:25;;;;;;;;;;;;;;;1.86;100.00;101060.81;3055786;19;19926;-51
2022/10/21 01:54:28;;;;;;;;;;;;;;;1.88;100.00;101053.75;3055661;19;19915;-51
2022/10/21 01:55:33;;;;;;;;;;;;;;;1.82;100.00;101049.44;3055623;19;19983;-51
2022/10/21 01:56:35;;;;;;;;;;;;;;;1.83;100.00;101055.56;3055592;19;19931;-52
2022/10/21 01:57:42;;;;;;;;;;;;;;;1.84;100.00;101050.28;3055224;19;19923;-51
2022/10/21 01:58:43;;;;;;;;;;;;;;;1.84;100.00;101050.28;3055646;19;19917;-52
2022/10/21 01:59:48;;;;;;;;;;;;;;;1.86;100.00;101045.00;3055341;19;19946;-53
2022/10/21 02:00:50;;;;;;;;;;;;;;;1.87;100.00;101042.34;3055700;19;19926;-50
2022/10/21 02:01:54;;;;;;;;;;;;;;;1.89;100.00;101039.69;3055539;19;19929;-52
2022/10/21 02:02:56;;;;;;;;;;;;;;;1.90;100.00;101044.06;3056610;19;19926;-52
2022/10/21 02:04:01;;;;;;;;;;;;;;;1.87;100.00;101031.84;3055094;19;19949;-51
2022/10/21 02:05:05;;;;;;;;;;;;;;;1.90;100.00;101046.72;3055952;19;19946;-52
2022/10/21 02:06:12;;;;;;;;;;;;;;;1.88;100.00;101037.97;3055019;19;19919;-51
2022/10/21 02:07:14;;;;;;;;;;;;;;;1.88;100.00;101043.22;3055695;19;20034;-52
2022/10/21 02:08:18;;;;;;;;;;;;;;;1.87;100.00;101025.69;3056204;19;20936;-53
2022/10/21 02:09:20;;;;;;;;;;;;;;;1.88;100.00;101030.94;3056584;19;19919;-53
2022/10/21 02:10:25;;;;;;;;;;;;;;;1.90;100.00;101021.25;3056289;19;19923;-52
2022/10/21 02:11:27;;;;;;;;;;;;;;;1.92;100.00;101023.88;3056616;19;19926;-52
2022/10/21 02:12:31;;;;;;;;;;;;;;;1.96;100.00;101020.25;3055827;19;19933;-52
2022/10/21 02:13:38;;;;;;;;;;;;;;;1.98;100.00;101023.75;3055411;19;20016;-53
2022/10/21 02:14:43;;;;;;;;;;;;;;;2.00;100.00;101021.97;3055426;19;20341;-52
2022/10/21 02:15:45;;;;;;;;;;;;;;;2.02;100.00;101020.16;3055413;19;19923;-52
2022/10/21 02:16:49;;;;;;;;;;;;;;;2.00;100.00;101016.69;3055215;19;19923;-52
2022/10/21 02:17:53;;;;;;;;;;;;;;;2.03;100.00;101016.66;3055425;19;20031;-51
2022/10/21 02:18:58;;;;;;;;;;;;;;;2.04;100.00;101013.13;3055031;19;19922;-53
2022/10/21 02:20:00;;;;;;;;;;;;;;;2.04;100.00;101007.84;3055732;19;19923;-53
2022/10/21 02:21:05;;;;;;;;;;;;;;;2.05;100.00;101004.31;3055043;19;19915;-53
2022/10/21 02:22:09;;;;;;;;;;;;;;;2.06;100.00;101006.03;3055650;19;20384;-53
2022/10/21 02:23:12;;;;;;;;;;;;;;;2.08;100.00;101002.47;3055992;19;19934;-54
2022/10/21 02:24:16;;;;;;;;;;;;;;;2.08;100.00;100985.81;3055544;19;19918;-52
2022/10/21 02:25:22;;;;;;;;;;;;;;;2.09;100.00;100998.97;3055209;19;19947;-54
2022/10/21 02:26:27;;;;;;;;;;;;;;;2.09;100.00;100990.19;3056080;19;19918;-53
2022/10/21 02:27:29;;;;;;;;;;;;;;;2.10;100.00;100986.66;3055136;19;19930;-54
2022/10/21 02:28:34;;;;;;;;;;;;;;;2.12;100.00;100984.88;3055341;19;19923;-51
2022/10/21 02:29:37;;;;;;;;;;;;;;;2.12;100.00;100984.88;3055189;19;19947;-53
2022/10/21 02:30:46;;;;;;;;;;;;;;;2.15;100.00;100984.81;3055193;19;19915;-53
2022/10/21 02:31:50;;;;;;;;;;;;;;;2.14;100.00;100988.34;3055587;19;19983;-52
2022/10/21 02:32:54;;;;;;;;;;;;;;;2.14;100.00;100983.09;3054857;19;19911;-53
2022/10/21 02:34:11;;;;;;;;;;;;;;;2.17;100.00;100983.03;3055132;19;19921;-53
2022/10/21 02:35:20;;;;;;;;;;;;;;;2.16;100.00;100989.19;3055404;19;20298;-52
2022/10/21 02:36:29;;;;;;;;;;;;;;;2.16;100.00;100986.56;3055387;19;20535;-50
2022/10/21 02:37:33;;;;;;;;;;;;;;;2.17;100.00;100985.66;3055562;19;19986;-53
2022/10/21 02:38:47;;;;;;;;;;;;;;;2.17;100.00;100988.31;3055497;19;20253;-53
2022/10/21 02:39:57;;;;;;;;;;;;;;;2.12;100.00;100984.88;3055165;19;19915;-51
2022/10/21 02:41:09;;;;;;;;;;;;;;;2.15;100.00;100992.72;3055452;19;19923;-52
2022/10/21 02:42:15;;;;;;;;;;;;;;;2.15;100.00;100984.81;3055328;19;19911;-53
2022/10/21 02:43:32;;;;;;;;;;;;;;;2.15;100.00;100983.06;3055279;19;19919;-51
2022/10/21 02:44:36;;;;;;;;;;;;;;;2.15;100.00;100984.81;3055743;19;19923;-52
2022/10/21 02:45:38;;;;;;;;;;;;;;;2.11;100.00;100976.09;3054699;19;19936;-52
2022/10/21 02:46:43;;;;;;;;;;;;;;;2.13;100.00;100986.63;3054604;19;19947;-52
2022/10/21 02:47:47;;;;;;;;;;;;;;;2.15;100.00;100976.94;3055091;19;20247;-52
2022/10/21 02:48:51;;;;;;;;;;;;;;;2.16;100.00;100973.41;3055060;19;19923;-52
2022/10/21 02:49:53;;;;;;;;;;;;;;;2.14;100.00;100977.81;3054899;19;19986;-52
2022/10/21 02:50:57;;;;;;;;;;;;;;;2.13;100.00;100976.09;3055765;19;19942;-53
2022/10/21 02:51:59;;;;;;;;;;;;;;;2.11;100.00;100973.47;3055703;19;20012;-52
2022/10/21 02:53:03;;;;;;;;;;;;;;;2.13;100.00;100976.09;3055798;19;20257;-53
2022/10/21 02:54:05;;;;;;;;;;;;;;;2.13;100.00;100976.09;3056083;19;19998;-52
2022/10/21 02:55:10;;;;;;;;;;;;;;;2.15;100.00;100969.03;3055387;19;19930;-51
2022/10/21 02:56:11;;;;;;;;;;;;;;;2.15;100.00;100967.28;3055941;19;20007;-52
2022/10/21 02:57:16;;;;;;;;;;;;;;;2.17;100.00;100972.50;3057195;19;20560;-52
2022/10/21 02:58:18;;;;;;;;;;;;;;;2.16;100.00;100973.41;3057939;19;19982;-53
2022/10/21 02:59:22;;;;;;;;;;;;;;;2.17;100.00;100978.59;3058432;19;19930;-51
2022/10/21 03:00:24;;;;;;;;;;;;;;;2.14;100.00;100975.19;3058898;19;19931;-52
2022/10/21 03:01:33;;;;;;;;;;;;;;;2.06;100.00;100953.38;3058175;19;19926;-52
2022/10/21 03:02:35;;;;;;;;;;;;;;;2.18;100.00;100976.84;3057959;19;19918;-53
2022/10/21 03:03:40;;;;;;;;;;;;;;;2.18;100.00;100971.56;3058603;19;19930;-51
2022/10/21 03:04:41;;;;;;;;;;;;;;;2.18;100.00;100971.56;3059018;19;19918;-53
2022/10/21 03:05:46;;;;;;;;;;;;;;;2.18;100.00;100967.19;3058803;19;19942;-53
2022/10/21 03:06:47;;;;;;;;;;;;;;;2.17;100.00;100967.25;3057610;19;19938;-52
2022/10/21 03:07:52;;;;;;;;;;;;;;;2.16;100.00;100961.09;3057844;19;19930;-52
2022/10/21 03:08:54;;;;;;;;;;;;;;;2.16;100.00;100965.50;3058707;19;19942;-52
2022/10/21 03:09:58;;;;;;;;;;;;;;;2.15;100.00;100969.03;3059098;19;19923;-52
2022/10/21 03:11:00;;;;;;;;;;;;;;;2.14;100.00;100964.66;3059101;19;19938;-51
2022/10/21 03:12:04;;;;;;;;;;;;;;;2.14;100.00;100967.28;3058659;19;19930;-51
2022/10/21 03:13:06;;;;;;;;;;;;;;;2.15;100.00;100975.16;3058685;19;19919;-53
2022/10/21 03:14:10;;;;;;;;;;;;;;;2.15;100.00;100966.41;3058823;19;19926;-52
2022/10/21 03:15:12;;;;;;;;;;;;;;;2.15;100.00;100964.63;3058664;19;19942;-53
2022/10/21 03:16:16;;;;;;;;;;;;;;;2.14;100.00;100967.28;3058550;19;19915;-51
2022/10/21 03:17:38;;;;;;;;;;;;;;;2.07;100.00;100949.84;3058628;19;19922;-50
2022/10/21 03:18:43;;;;;;;;;;;;;;;2.10;100.00;100961.22;3058685;19;19926;-53
2022/10/21 03:19:45;;;;;;;;;;;;;;;2.13;100.00;100960.28;3058647;19;19915;-53
2022/10/21 03:20:52;;;;;;;;;;;;;;;2.12;100.00;100955.91;3058578;19;20043;-53
2022/10/21 03:21:54;;;;;;;;;;;;;;;2.12;100.00;100950.66;3058675;19;19915;-53
2022/10/21 03:24:28;;;;;;;;;;;;;;;2.08;100.00;100943.69;3048170;19;19930;-52
2022/10/21 03:25:30;;;;;;;;;;;;;;;2.11;100.00;100935.75;3058277;19;19939;-51
2022/10/21 03:26:38;;;;;;;;;;;;;;;2.12;100.00;100933.09;3057365;19;19922;-50
2022/10/21 03:27:40;;;;;;;;;;;;;;;2.14;100.00;100935.69;3056455;19;19918;-51
2022/10/21 03:28:45;;;;;;;;;;;;;;;2.12;100.00;100930.47;3057890;19;19950;-52
2022/10/21 03:29:46;;;;;;;;;;;;;;;2.12;100.00;100932.22;3057919;19;20338;-51
2022/10/21 03:30:51;;;;;;;;;;;;;;;2.11;100.00;100920.81;3058471;19;19919;-51
2022/10/21 03:31:53;;;;;;;;;;;;;;;2.15;100.00;100926.91;3057905;19;19940;-50
2022/10/21 03:32:57;;;;;;;;;;;;;;;2.16;100.00;100923.38;3058050;19;19939;-51
2022/10/21 03:33:59;;;;;;;;;;;;;;;2.15;100.00;100927.78;3057716;19;19915;-50
2022/10/21 03:35:03;;;;;;;;;;;;;;;2.16;100.00;100928.66;3058158;19;19919;-50
2022/10/21 03:36:09;;;;;;;;;;;;;;;2.19;100.00;100920.66;3056700;19;20253;-51
2022/10/21 03:37:11;;;;;;;;;;;;;;;2.19;100.00;100920.66;3059741;19;20325;-51
2022/10/21 03:38:15;;;;;;;;;;;;;;;2.13;100.00;100920.78;3057813;19;19915;-51
2022/10/21 03:39:17;;;;;;;;;;;;;;;2.16;100.00;100931.28;3059252;19;19922;-52
2022/10/21 03:40:22;;;;;;;;;;;;;;;2.18;100.00;100929.44;3058992;19;19922;-52
2022/10/21 03:41:24;;;;;;;;;;;;;;;2.18;100.00;100939.97;3058233;19;19983;-51
2022/10/21 03:42:29;;;;;;;;;;;;;;;2.20;100.00;100940.81;3057826;19;20015;-51
2022/10/21 03:43:31;;;;;;;;;;;;;;;2.18;100.00;100937.34;3057201;19;19935;-51
2022/10/21 03:44:35;;;;;;;;;;;;;;;2.18;100.00;100932.09;3057061;19;19933;-52
2022/10/21 03:45:37;;;;;;;;;;;;;;;2.19;100.00;100928.56;3057800;19;19919;-52
2022/10/21 03:46:41;;;;;;;;;;;;;;;2.20;100.00;100939.97;3057944;19;20444;-51
2022/10/21 03:47:43;;;;;;;;;;;;;;;2.20;100.00;100930.28;3057196;19;19923;-50
2022/10/21 03:48:48;;;;;;;;;;;;;;;2.18;100.00;100932.94;3057995;19;20330;-50
2022/10/21 03:49:49;;;;;;;;;;;;;;;2.20;100.00;100935.56;3057844;19;20377;-50
2022/10/21 03:50:54;;;;;;;;;;;;;;;2.18;100.00;100932.94;3057860;19;20246;-50
2022/10/21 03:51:55;;;;;;;;;;;;;;;2.19;100.00;100931.19;3057797;19;19982;-51
2022/10/21 03:53:00;;;;;;;;;;;;;;;2.21;100.00;100934.66;3058119;19;19923;-50
2022/10/21 03:54:14;;;;;;;;;;;;;;;2.21;100.00;100937.28;3057665;19;19915;-52
2022/10/21 03:55:19;;;;;;;;;;;;;;;2.21;100.00;100932.03;3057839;19;20329;-51
2022/10/21 03:56:21;;;;;;;;;;;;;;;2.21;100.00;100932.03;3057677;19;19939;-52
2022/10/21 03:57:26;;;;;;;;;;;;;;;2.23;100.00;100938.13;3057208;19;19996;-51
2022/10/21 03:58:27;;;;;;;;;;;;;;;2.22;100.00;100927.63;3056690;19;19915;-51
2022/10/21 03:59:32;;;;;;;;;;;;;;;2.19;100.00;100925.94;3057655;19;20316;-50
2022/10/21 04:00:34;;;;;;;;;;;;;;;2.21;100.00;100924.13;3057509;19;19915;-52
2022/10/21 04:01:38;;;;;;;;;;;;;;;2.21;100.00;100926.75;3057710;19;20287;-52
2022/10/21 04:02:40;;;;;;;;;;;;;;;2.23;100.00;100930.25;3057859;19;19949;-51
2022/10/21 04:03:44;;;;;;;;;;;;;;;2.23;100.00;100929.38;3057758;19;20306;-50
2022/10/21 04:04:46;;;;;;;;;;;;;;;2.23;100.00;100929.38;3057585;19;19926;-51
2022/10/21 04:05:50;;;;;;;;;;;;;;;2.22;100.00;100928.50;3057930;19;19940;-51
2022/10/21 04:06:52;;;;;;;;;;;;;;;2.23;100.00;100932.88;3058791;19;19922;-50
2022/10/21 04:07:57;;;;;;;;;;;;;;;2.22;100.00;100928.50;3056903;19;20320;-52
2022/10/21 04:08:58;;;;;;;;;;;;;;;2.17;100.00;100914.59;3057398;19;20332;-53
2022/10/21 04:10:03;;;;;;;;;;;;;;;2.24;100.00;100921.44;3058513;19;19926;-52
2022/10/21 04:11:07;;;;;;;;;;;;;;;2.24;100.00;100921.44;3057516;19;19919;-52
2022/10/21 04:12:09;;;;;;;;;;;;;;;2.23;100.00;100909.19;3057643;19;19923;-52
2022/10/21 04:13:15;;;;;;;;;;;;;;;2.25;100.00;100907.38;3057222;19;19926;-52
2022/10/21 04:14:18;;;;;;;;;;;;;;;2.26;100.00;100901.22;3057493;19;19918;-52
2022/10/21 04:15:23;;;;;;;;;;;;;;;2.28;100.00;100907.31;3057388;19;20003;-51
2022/10/21 04:16:24;;;;;;;;;;;;;;;2.32;100.00;100908.09;3057755;19;19923;-52
2022/10/21 04:17:29;;;;;;;;;;;;;;;2.32;100.00;100908.09;3057266;19;19923;-52
2022/10/21 04:18:31;;;;;;;;;;;;;;;2.36;100.00;100909.78;3057690;19;19918;-50
2022/10/21 04:19:35;;;;;;;;;;;;;;;2.40;100.00;100903.56;3057310;19;19922;-52
2022/10/21 04:20:37;;;;;;;;;;;;;;;2.43;100.00;100901.72;3057570;19;19922;-51
2022/10/21 04:21:42;;;;;;;;;;;;;;;2.45;100.00;100889.38;3057228;19;19934;-52
2022/10/21 04:22:43;;;;;;;;;;;;;;;2.44;100.00;100892.91;3057479;19;19930;-52
2022/10/21 04:23:48;;;;;;;;;;;;;;;2.50;100.00;100889.28;3057218;19;20338;-52
2022/10/21 04:24:49;;;;;;;;;;;;;;;2.50;100.00;100892.78;3055887;19;19923;-51
2022/10/21 04:25:54;;;;;;;;;;;;;;;2.56;100.00;100890.91;3057266;19;19991;-52
2022/10/21 04:26:56;;;;;;;;;;;;;;;2.53;100.00;100879.56;3057361;19;19964;-51
2022/10/21 04:28:00;;;;;;;;;;;;;;;2.58;100.00;100883.84;3057589;19;19919;-51
2022/10/21 04:29:02;;;;;;;;;;;;;;;2.61;100.00;100889.91;3058898;19;20260;-51
2022/10/21 04:30:07;;;;;;;;;;;;;;;2.61;100.00;100889.03;3056692;19;19927;-52
2022/10/21 04:31:08;;;;;;;;;;;;;;;2.66;100.00;100884.53;3057622;19;19929;-52
2022/10/21 04:32:13;;;;;;;;;;;;;;;2.69;100.00;100884.47;3057051;19;19958;-52
2022/10/21 04:33:15;;;;;;;;;;;;;;;2.71;100.00;100882.66;3057170;19;19919;-53
2022/10/21 04:34:19;;;;;;;;;;;;;;;2.73;100.00;100888.78;3056008;19;20246;-52
2022/10/21 04:35:21;;;;;;;;;;;;;;;2.74;100.00;100880.84;3056440;19;19923;-52
2022/10/21 04:36:25;;;;;;;;;;;;;;;2.75;100.00;100871.16;3056331;19;19946;-52
2022/10/21 04:37:27;;;;;;;;;;;;;;;2.75;100.00;100876.44;3057441;19;19918;-50
2022/10/21 04:38:31;;;;;;;;;;;;;;;2.79;100.00;100872.78;3057152;19;19922;-53
2022/10/21 04:39:33;;;;;;;;;;;;;;;2.83;100.00;100874.47;3058828;19;19926;-50
2022/10/21 04:40:37;;;;;;;;;;;;;;;2.86;100.00;100874.41;3057283;19;19930;-51
2022/10/21 04:41:39;;;;;;;;;;;;;;;2.89;100.00;100874.34;3057842;19;19943;-52
2022/10/21 04:42:44;;;;;;;;;;;;;;;2.90;100.00;100876.03;3057254;19;20017;-51
2022/10/21 04:43:45;;;;;;;;;;;;;;;2.92;100.00;100866.34;3057124;19;20349;-51
2022/10/21 04:44:50;;;;;;;;;;;;;;;2.93;100.00;100870.69;3056784;19;19923;-52
2022/10/21 04:45:52;;;;;;;;;;;;;;;2.95;100.00;100868.91;3057431;19;19926;-52
2022/10/21 04:46:56;;;;;;;;;;;;;;;2.98;100.00;100874.09;3056926;19;19926;-51
2022/10/21 04:47:58;;;;;;;;;;;;;;;2.95;100.00;100868.91;3057341;19;20063;-52
2022/10/21 04:49:02;;;;;;;;;;;;;;;3.02;100.00;100873.09;3057014;19;19946;-52
2022/10/21 04:50:04;;;;;;;;;;;;;;;3.03;100.00;100874.84;3056967;19;20036;-51
2022/10/21 04:51:09;;;;;;;;;;;;;;;3.03;100.00;100876.59;3055627;19;19936;-50
2022/10/21 04:52:10;;;;;;;;;;;;;;;3.03;100.00;100877.47;3058657;19;20352;-52
2022/10/21 04:53:15;;;;;;;;;;;;;;;3.04;100.00;100876.56;3056997;19;20345;-51
2022/10/21 04:54:17;;;;;;;;;;;;;;;3.02;100.00;100864.38;3056914;19;19934;-50
2022/10/21 04:55:21;;;;;;;;;;;;;;;3.03;100.00;100872.22;3058029;19;19918;-51
2022/10/21 04:56:23;;;;;;;;;;;;;;;2.99;100.00;100869.69;3056729;19;19922;-52
2022/10/21 04:57:27;;;;;;;;;;;;;;;3.03;100.00;100872.22;3057308;19;19919;-52
2022/10/21 04:58:29;;;;;;;;;;;;;;;3.02;100.00;100862.56;3057502;19;19923;-52
2022/10/21 04:59:33;;;;;;;;;;;;;;;3.04;100.00;100863.41;3056846;19;19930;-50
2022/10/21 05:00:35;;;;;;;;;;;;;;;3.05;100.00;100873.03;3057136;19;20326;-51
2022/10/21 05:01:40;;;;;;;;;;;;;;;3.04;100.00;100858.13;3056530;19;19931;-52
2022/10/21 05:02:42;;;;;;;;;;;;;;;3.05;100.00;100865.13;3056079;19;19919;-53
2022/10/21 05:03:46;;;;;;;;;;;;;;;3.05;100.00;100864.25;3056737;19;20031;-52
2022/10/21 05:04:50;;;;;;;;;;;;;;;3.05;100.00;100865.13;3056893;19;19923;-52
2022/10/21 05:05:52;;;;;;;;;;;;;;;3.05;100.00;100870.41;3056964;19;19915;-51
2022/10/21 05:06:57;;;;;;;;;;;;;;;3.02;100.00;100864.38;3056262;19;19926;-51
2022/10/21 05:07:58;;;;;;;;;;;;;;;3.03;100.00;100856.38;3057979;19;19922;-53
2022/10/21 05:09:03;;;;;;;;;;;;;;;3.03;100.00;100856.38;3056005;19;20370;-53
2022/10/21 05:10:05;;;;;;;;;;;;;;;3.03;100.00;100852.88;3057019;19;20330;-52
2022/10/21 05:11:09;;;;;;;;;;;;;;;3.00;100.00;100851.22;3056517;19;20349;-52
2022/10/21 05:12:11;;;;;;;;;;;;;;;3.01;100.00;100847.69;3055973;19;20011;-52
2022/10/21 05:13:15;;;;;;;;;;;;;;;3.00;100.00;100842.44;3056570;19;19923;-52
2022/10/21 05:14:17;;;;;;;;;;;;;;;3.00;100.00;100832.75;3056405;19;20437;-52
2022/10/21 05:15:26;;;;;;;;;;;;;;;2.98;100.00;100834.56;3056486;19;19919;-50
2022/10/21 05:16:27;;;;;;;;;;;;;;;2.99;100.00;100824.88;3056820;19;19926;-51
2022/10/21 05:17:32;;;;;;;;;;;;;;;2.94;100.00;100830.25;3056575;19;19926;-52
2022/10/21 05:18:34;;;;;;;;;;;;;;;2.91;100.00;100830.31;3056661;19;20341;-52
2022/10/21 05:19:38;;;;;;;;;;;;;;;2.92;100.00;100832.06;3055509;19;20265;-53
2022/10/21 05:20:41;;;;;;;;;;;;;;;2.98;100.00;100833.69;3056473;19;19986;-53
2022/10/21 05:21:45;;;;;;;;;;;;;;;3.01;100.00;100837.13;3056510;19;20377;-52
2022/10/21 05:22:48;;;;;;;;;;;;;;;3.03;100.00;100832.66;3056779;19;19923;-51
2022/10/21 05:23:52;;;;;;;;;;;;;;;2.97;100.00;100835.47;3056091;19;19926;-49
2022/10/21 05:24:54;;;;;;;;;;;;;;;3.05;100.00;100822.09;3055721;19;20337;-49
2022/10/21 05:25:58;;;;;;;;;;;;;;;3.05;100.00;100828.22;3056260;19;19919;-50
2022/10/21 05:27:00;;;;;;;;;;;;;;;3.04;100.00;100822.97;3055280;19;20309;-52
2022/10/21 05:28:05;;;;;;;;;;;;;;;3.06;100.00;100818.53;3056470;19;19915;-50
2022/10/21 05:29:07;;;;;;;;;;;;;;;3.10;100.00;100820.22;3055244;19;19957;-50
2022/10/21 05:30:12;;;;;;;;;;;;;;;3.09;100.00;100823.75;3055397;19;20415;-50
2022/10/21 05:31:13;;;;;;;;;;;;;;;3.10;100.00;100831.63;3056466;19;19926;-50
2022/10/21 05:32:18;;;;;;;;;;;;;;;3.14;100.00;100832.41;3056105;19;19979;-50
2022/10/21 05:33:20;;;;;;;;;;;;;;;3.13;100.00;100826.28;3056299;19;20346;-49